Glen Rose, Texas
Current Conditions -  °F | °C
As of 4:35 AM on Friday 21 Nov 2014 (Local Time) from KGDJ Reporting Station
Overcast Overcast  
Wind Chill: 60°   Ceiling: 1600
Heat Index: 60°   Visibility: 7mi
Dew Point: 58°   Wind: 5mph
Humidity: 93%   Direction: 120°ESE
Pressure: 30.05"   Gusts: NA
Location:  32.23°N, 97.76°W
Report Text: KGDJ 211035Z AUTO 12004KT 7SM SCT005 OVC016 16/15 A3005 RMK AO2 T01570145
Loading
Personal Weather Stations






























Interactive Weather Map New forecast layout! Learn more

10-Day Weather Forecast

Advertisements
Track Severe Weather on mobile